Queen Of Cowichan — CZ4990 — position and weather

sailwx.info

Track history (hours):
 
Tides and Currents Weather Stations Pressure Air Temp Water Temp Dewpoint Dewpoint Depression Visibility Wind Speed Wind Dir Waves Ship Positions

Queen Of Cowichan

Last reported at 2017-Feb-24 21:33 UTC. Time now 2017-Feb-24 21:39 UTC.
Position N 49°18' W 123°32'.

Length 139 m.

Type: Passenger vessel. MMSI: 316001251.

Date/timePositionNaut miles runAvg speedWind from/ knotsBaromVisibWave heightAir tempDewpointWater temp
2017-Feb-24 21:33N 49°18' W 123°32'1111.4
2017-Feb-24 20:33N 49°23' W 123°16'1111.4
2017-Feb-24 19:33N 49°17' W 123°32'1817.1
2017-Feb-24 18:31N 49°12' W 123°57'1010.1
2017-Feb-24 17:33N 49°16' W 123°44'1919.3
2017-Feb-24 16:33N 49°23' W 123°16'9 9.2
2017-Feb-24 15:34N 49°18' W 123°28'2019.9
2017-Feb-24 14:33N 49°12' W 123°57'0 0.2
2017-Feb-24 13:24N 49°12' W 123°57'0 0.0
2017-Feb-24 12:30N 49°12' W 123°57'0 0.0
2017-Feb-24 11:27N 49°12' W 123°57'0 0.0
2017-Feb-24 09:30N 49°12' W 123°57'0 0.0
2017-Feb-24 08:24N 49°12' W 123°57'0 0.0
2017-Feb-24 07:30N 49°12' W 123°57'0 0.0
2017-Feb-24 06:30N 49°12' W 123°57'0 0.0
2017-Feb-24 05:18N 49°12' W 123°57'0 0.0
2017-Feb-24 04:33N 49°12' W 123°57'0 0.0
2017-Feb-24 03:06N 49°12' W 123°57'2 3.3
2017-Feb-24 02:34N 49°13' W 123°55'2019.7
2017-Feb-24 01:33N 49°19' W 123°27'8 7.8
2017-Feb-24 00:33N 49°23' W 123°16'1918.7
2017-Feb-23 23:34N 49°15' W 123°42'1010.2
2017-Feb-23 22:32N 49°12' W 123°57'1111.0
2017-Feb-23 21:34N 49°16' W 123°43'1818.4
2017-Feb-23 20:34N 49°23' W 123°16'8 8.4
2017-Feb-23 19:34N 49°18' W 123°27'2020.4
2017-Feb-23 18:33N 49°12' W 123°57'9 9.1
2017-Feb-23 17:33N 49°16' W 123°44'1919.5
2017-Feb-23 16:34N 49°23' W 123°16'9 9.0
2017-Feb-23 15:33N 49°17' W 123°27'2020.3
2017-Feb-23 14:33N 49°12' W 123°57'3 0.3
2017-Feb-23 02:30N 49°14' W 123°53'1818.6
2017-Feb-23 01:33N 49°19' W 123°27'8 8.0
2017-Feb-23 00:33N 49°23' W 123°16'1918.6
2017-Feb-22 23:34N 49°15' W 123°42'1110.1
2017-Feb-22 22:31N 49°12' W 123°57'1010.6
2017-Feb-22 21:34N 49°16' W 123°43'1919.1
2017-Feb-22 20:34N 49°23' W 123°16'8 8.2
2017-Feb-22 19:34N 49°18' W 123°27'2120.4
2017-Feb-22 18:33N 49°12' W 123°57'9 8.7
2017-Feb-22 17:33N 49°16' W 123°45'2019.8
2017-Feb-22 16:34N 49°23' W 123°17'9 8.8
2017-Feb-22 15:34N 49°18' W 123°28'2019.0
2017-Feb-22 14:29N 49°12' W 123°57'2 0.2
2017-Feb-22 02:33N 49°13' W 123°55'1818.5
2017-Feb-22 01:34N 49°19' W 123°28'9 8.5
2017-Feb-22 00:33N 49°23' W 123°16'1818.6
2017-Feb-21 23:33N 49°15' W 123°42'1 0.6
2017-Feb-21 21:33N 49°16' W 123°43'1918.4
2017-Feb-21 20:32N 49°23' W 123°16'8 8.2
2017-Feb-21 19:33N 49°18' W 123°27'2120.5
2017-Feb-21 18:32N 49°12' W 123°57'9 9.3
2017-Feb-21 17:33N 49°16' W 123°44'1919.6
2017-Feb-21 16:34N 49°23' W 123°17'8 7.6
2017-Feb-21 15:34N 49°19' W 123°26'2120.7
2017-Feb-21 14:33N 49°12' W 123°56'0 0.0
2017-Feb-21 02:32N 49°12' W 123°57'2020.0
2017-Feb-21 01:33N 49°19' W 123°29'9 9.0
2017-Feb-21 00:33N 49°23' W 123°16'1918.7
2017-Feb-20 23:33N 49°15' W 123°42'11 7.3
2017-Feb-20 22:07N 49°12' W 123°57'1018.3
2017-Feb-20 21:33N 49°16' W 123°43'1817.6
2017-Feb-20 20:30N 49°23' W 123°16'8 8.6
2017-Feb-20 19:33N 49°18' W 123°27'11 5.7
2017-Feb-20 17:33N 49°16' W 123°44'1919.2
2017-Feb-20 16:33N 49°23' W 123°16'9 8.6
2017-Feb-20 15:34N 49°18' W 123°27'2020.0
2017-Feb-20 14:33N 49°12' W 123°57'7 0.8
2017-Feb-20 06:33N 49°15' W 123°48'2020.1
2017-Feb-20 05:33N 49°22' W 123°19'5 4.5
2017-Feb-20 04:33N 49°19' W 123°24'2020.0
2017-Feb-20 03:33N 49°13' W 123°54'2 2.1
2017-Feb-20 02:30N 49°14' W 123°50'1920.4
2017-Feb-20 01:34N 49°20' W 123°22'4 4.3
2017-Feb-20 00:33N 49°23' W 123°18'1919.2
2017-Feb-19 23:33N 49°15' W 123°45'8 5.6
2017-Feb-19 22:07N 49°12' W 123°57'1120.0
2017-Feb-19 21:33N 49°17' W 123°41'1716.8
2017-Feb-19 20:32N 49°23' W 123°16'9 9.4
2017-Feb-19 19:34N 49°18' W 123°29'2013.4
2017-Feb-19 18:05N 49°12' W 123°57'917.9
2017-Feb-19 17:33N 49°16' W 123°45'2019.7
2017-Feb-19 16:33N 49°23' W 123°16'8 8.1
2017-Feb-19 15:33N 49°18' W 123°27'2020.5
2017-Feb-19 14:33N 49°12' W 123°57'0 0.0
2017-Feb-19 06:33N 49°12' W 123°57'2019.7
2017-Feb-19 05:33N 49°19' W 123°29'9 9.2
2017-Feb-19 04:34N 49°23' W 123°16'1918.7
2017-Feb-19 03:33N 49°15' W 123°43'10 9.8
2017-Feb-19 02:33N 49°12' W 123°57'1919.7
2017-Feb-19 01:33N 49°19' W 123°29'9 9.0
2017-Feb-19 00:32N 49°23' W 123°16'1819.0
2017-Feb-18 23:33N 49°15' W 123°42'10 6.9
2017-Feb-18 22:04N 49°12' W 123°57'1019.8
2017-Feb-18 21:33N 49°16' W 123°43'1818.3
2017-Feb-18 20:33N 49°23' W 123°16'10 9.7
2017-Feb-18 19:33N 49°17' W 123°29'2014.1
2017-Feb-18 18:11N 49°12' W 123°57'1016.3
2017-Feb-18 17:33N 49°16' W 123°43'1919.0
2017-Feb-18 16:33N 49°23' W 123°16'8 8.4
2017-Feb-18 15:33N 49°18' W 123°27'2020.5
2017-Feb-18 14:33N 49°12' W 123°57'1 0.3
2017-Feb-18 12:11N 49°12' W 123°57'3 0.5
2017-Feb-18 06:33N 49°14' W 123°54'2020.0
2017-Feb-18 05:34N 49°19' W 123°24'4 3.6
2017-Feb-18 04:34N 49°21' W 123°20'2120.4
2017-Feb-18 03:33N 49°14' W 123°49'2 2.5
2017-Feb-18 02:33N 49°14' W 123°53'2019.7
2017-Feb-18 01:33N 49°19' W 123°24'7 6.5
2017-Feb-18 00:33N 49°23' W 123°17'1919.4
2017-Feb-17 23:33N 49°15' W 123°44'9 7.0
2017-Feb-17 22:14N 49°12' W 123°57'1319.3
2017-Feb-17 21:33N 49°17' W 123°38'1615.6
2017-Feb-17 20:33N 49°23' W 123°16'10 9.7
2017-Feb-17 19:33N 49°18' W 123°29'9 4.6
2017-Feb-17 17:34N 49°16' W 123°43'1917.9
2017-Feb-17 16:31N 49°23' W 123°16'9 9.0
2017-Feb-17 15:33N 49°18' W 123°28'2020.1
2017-Feb-17 14:33N 49°12' W 123°57'1 0.2
2017-Feb-17 12:24N 49°12' W 123°57'1 0.1
2017-Feb-17 02:33N 49°12' W 123°56'2020.1
2017-Feb-17 01:33N 49°19' W 123°27'8 8.3
2017-Feb-17 00:33N 49°23' W 123°17'1919.0
2017-Feb-16 23:33N 49°15' W 123°43'10 7.2
2017-Feb-16 22:10N 49°12' W 123°57'1117.4
2017-Feb-16 21:33N 49°16' W 123°43'1817.7
2017-Feb-16 20:31N 49°23' W 123°16'9 9.0
2017-Feb-16 19:34N 49°18' W 123°27'2020.4
2017-Feb-16 18:33N 49°12' W 123°57'10 9.9
2017-Feb-16 17:33N 49°16' W 123°43'1919.0
2017-Feb-16 16:33N 49°23' W 123°16'9 8.8
2017-Feb-16 15:33N 49°18' W 123°27'2020.2
2017-Feb-16 14:33N 49°12' W 123°57'0 0.1
2017-Feb-16 08:15N 49°12' W 123°57'0 0.0
2017-Feb-16 07:33N 49°12' W 123°57'0 0.0
2017-Feb-16 06:33N 49°12' W 123°57'0 0.0
2017-Feb-16 05:24N 49°12' W 123°57'0 0.0
2017-Feb-16 04:33N 49°12' W 123°57'0 0.0
2017-Feb-16 03:30N 49°12' W 123°57'1 1.2
2017-Feb-16 02:33N 49°12' W 123°56'2020.5
2017-Feb-16 01:34N 49°19' W 123°27'8 7.7
2017-Feb-16 00:33N 49°23' W 123°16'1918.6
2017-Feb-15 23:33N 49°15' W 123°42'1010.3
2017-Feb-15 22:33N 49°12' W 123°57'1313.3
2017-Feb-15 21:33N 49°17' W 123°39'1615.9
2017-Feb-15 20:33N 49°23' W 123°16'1110.9
2017-Feb-15 19:33N 49°17' W 123°31'1818.0
2017-Feb-15 18:33N 49°12' W 123°57'1111.3
2017-Feb-15 17:33N 49°16' W 123°42'1817.7
2017-Feb-15 16:33N 49°23' W 123°16'9 8.9
2017-Feb-15 15:33N 49°18' W 123°28'2020.0
2017-Feb-15 14:33N 49°12' W 123°57'0 0.2
2017-Feb-15 12:31N 49°12' W 123°57'0 0.0
2017-Feb-15 11:31N 49°12' W 123°57'0 0.0
2017-Feb-15 10:31N 49°12' W 123°57'0 0.0
2017-Feb-15 09:10N 49°12' W 123°57'0 0.0
2017-Feb-15 08:31N 49°12' W 123°57'0 0.0
2017-Feb-15 07:31N 49°12' W 123°57'0 0.0
2017-Feb-15 06:28N 49°12' W 123°57'0 0.0
2017-Feb-15 05:22N 49°12' W 123°57'0 0.0
2017-Feb-15 03:25N 49°12' W 123°57'0 0.5
2017-Feb-15 02:33N 49°12' W 123°57'2019.7
2017-Feb-15 01:33N 49°18' W 123°29'9 9.2
2017-Feb-15 00:33N 49°23' W 123°16'1818.3
2017-Feb-14 23:33N 49°16' W 123°42'1110.7
2017-Feb-14 22:33N 49°12' W 123°57'1111.5
2017-Feb-14 21:34N 49°16' W 123°41'  
Track history (hours):
 
Tides and Currents Weather Stations Pressure Air Temp Water Temp Dewpoint Dewpoint Depression Visibility Wind Speed Wind Dir Waves Ship Positions

Queen Of Cowichan

Last reported at 2017-Feb-24 21:33 UTC. Time now 2017-Feb-24 21:39 UTC.
Position N 49°18' W 123°32'.

Length 139 m.

Type: Passenger vessel. MMSI: 316001251.

Date/timePositionNaut miles runAvg speedWind from/ knotsBaromVisibWave heightAir tempDewpointWater temp
2017-Feb-24 21:33N 49°18' W 123°32'1111.4
2017-Feb-24 20:33N 49°23' W 123°16'1111.4
2017-Feb-24 19:33N 49°17' W 123°32'1817.1
2017-Feb-24 18:31N 49°12' W 123°57'1010.1
2017-Feb-24 17:33N 49°16' W 123°44'1919.3
2017-Feb-24 16:33N 49°23' W 123°16'9 9.2
2017-Feb-24 15:34N 49°18' W 123°28'2019.9
2017-Feb-24 14:33N 49°12' W 123°57'0 0.2
2017-Feb-24 13:24N 49°12' W 123°57'0 0.0
2017-Feb-24 12:30N 49°12' W 123°57'0 0.0
2017-Feb-24 11:27N 49°12' W 123°57'0 0.0
2017-Feb-24 09:30N 49°12' W 123°57'0 0.0
2017-Feb-24 08:24N 49°12' W 123°57'0 0.0
2017-Feb-24 07:30N 49°12' W 123°57'0 0.0
2017-Feb-24 06:30N 49°12' W 123°57'0 0.0
2017-Feb-24 05:18N 49°12' W 123°57'0 0.0
2017-Feb-24 04:33N 49°12' W 123°57'0 0.0
2017-Feb-24 03:06N 49°12' W 123°57'2 3.3
2017-Feb-24 02:34N 49°13' W 123°55'2019.7
2017-Feb-24 01:33N 49°19' W 123°27'8 7.8
2017-Feb-24 00:33N 49°23' W 123°16'1918.7
2017-Feb-23 23:34N 49°15' W 123°42'1010.2
2017-Feb-23 22:32N 49°12' W 123°57'1111.0
2017-Feb-23 21:34N 49°16' W 123°43'1818.4
2017-Feb-23 20:34N 49°23' W 123°16'8 8.4
2017-Feb-23 19:34N 49°18' W 123°27'2020.4
2017-Feb-23 18:33N 49°12' W 123°57'9 9.1
2017-Feb-23 17:33N 49°16' W 123°44'1919.5
2017-Feb-23 16:34N 49°23' W 123°16'9 9.0
2017-Feb-23 15:33N 49°17' W 123°27'2020.3
2017-Feb-23 14:33N 49°12' W 123°57'3 0.3
2017-Feb-23 02:30N 49°14' W 123°53'1818.6
2017-Feb-23 01:33N 49°19' W 123°27'8 8.0
2017-Feb-23 00:33N 49°23' W 123°16'1918.6
2017-Feb-22 23:34N 49°15' W 123°42'1110.1
2017-Feb-22 22:31N 49°12' W 123°57'1010.6
2017-Feb-22 21:34N 49°16' W 123°43'1919.1
2017-Feb-22 20:34N 49°23' W 123°16'8 8.2
2017-Feb-22 19:34N 49°18' W 123°27'2120.4
2017-Feb-22 18:33N 49°12' W 123°57'9 8.7
2017-Feb-22 17:33N 49°16' W 123°45'2019.8
2017-Feb-22 16:34N 49°23' W 123°17'9 8.8
2017-Feb-22 15:34N 49°18' W 123°28'2019.0
2017-Feb-22 14:29N 49°12' W 123°57'2 0.2
2017-Feb-22 02:33N 49°13' W 123°55'1818.5
2017-Feb-22 01:34N 49°19' W 123°28'9 8.5
2017-Feb-22 00:33N 49°23' W 123°16'1818.6
2017-Feb-21 23:33N 49°15' W 123°42'1 0.6
2017-Feb-21 21:33N 49°16' W 123°43'1918.4
2017-Feb-21 20:32N 49°23' W 123°16'8 8.2
2017-Feb-21 19:33N 49°18' W 123°27'2120.5
2017-Feb-21 18:32N 49°12' W 123°57'9 9.3
2017-Feb-21 17:33N 49°16' W 123°44'1919.6
2017-Feb-21 16:34N 49°23' W 123°17'8 7.6
2017-Feb-21 15:34N 49°19' W 123°26'2120.7
2017-Feb-21 14:33N 49°12' W 123°56'0 0.0
2017-Feb-21 02:32N 49°12' W 123°57'2020.0
2017-Feb-21 01:33N 49°19' W 123°29'9 9.0
2017-Feb-21 00:33N 49°23' W 123°16'1918.7
2017-Feb-20 23:33N 49°15' W 123°42'11 7.3
2017-Feb-20 22:07N 49°12' W 123°57'1018.3
2017-Feb-20 21:33N 49°16' W 123°43'1817.6
2017-Feb-20 20:30N 49°23' W 123°16'8 8.6
2017-Feb-20 19:33N 49°18' W 123°27'11 5.7
2017-Feb-20 17:33N 49°16' W 123°44'1919.2
2017-Feb-20 16:33N 49°23' W 123°16'9 8.6
2017-Feb-20 15:34N 49°18' W 123°27'2020.0
2017-Feb-20 14:33N 49°12' W 123°57'7 0.8
2017-Feb-20 06:33N 49°15' W 123°48'2020.1
2017-Feb-20 05:33N 49°22' W 123°19'5 4.5
2017-Feb-20 04:33N 49°19' W 123°24'2020.0
2017-Feb-20 03:33N 49°13' W 123°54'2 2.1
2017-Feb-20 02:30N 49°14' W 123°50'1920.4
2017-Feb-20 01:34N 49°20' W 123°22'4 4.3
2017-Feb-20 00:33N 49°23' W 123°18'1919.2
2017-Feb-19 23:33N 49°15' W 123°45'8 5.6
2017-Feb-19 22:07N 49°12' W 123°57'1120.0
2017-Feb-19 21:33N 49°17' W 123°41'1716.8
2017-Feb-19 20:32N 49°23' W 123°16'9 9.4
2017-Feb-19 19:34N 49°18' W 123°29'2013.4
2017-Feb-19 18:05N 49°12' W 123°57'917.9
2017-Feb-19 17:33N 49°16' W 123°45'2019.7
2017-Feb-19 16:33N 49°23' W 123°16'8 8.1
2017-Feb-19 15:33N 49°18' W 123°27'2020.5
2017-Feb-19 14:33N 49°12' W 123°57'0 0.0
2017-Feb-19 06:33N 49°12' W 123°57'2019.7
2017-Feb-19 05:33N 49°19' W 123°29'9 9.2
2017-Feb-19 04:34N 49°23' W 123°16'1918.7
2017-Feb-19 03:33N 49°15' W 123°43'10 9.8
2017-Feb-19 02:33N 49°12' W 123°57'1919.7
2017-Feb-19 01:33N 49°19' W 123°29'9 9.0
2017-Feb-19 00:32N 49°23' W 123°16'1819.0
2017-Feb-18 23:33N 49°15' W 123°42'10 6.9
2017-Feb-18 22:04N 49°12' W 123°57'1019.8
2017-Feb-18 21:33N 49°16' W 123°43'1818.3
2017-Feb-18 20:33N 49°23' W 123°16'10 9.7
2017-Feb-18 19:33N 49°17' W 123°29'2014.1
2017-Feb-18 18:11N 49°12' W 123°57'1016.3
2017-Feb-18 17:33N 49°16' W 123°43'1919.0
2017-Feb-18 16:33N 49°23' W 123°16'8 8.4
2017-Feb-18 15:33N 49°18' W 123°27'2020.5
2017-Feb-18 14:33N 49°12' W 123°57'1 0.3
2017-Feb-18 12:11N 49°12' W 123°57'3 0.5
2017-Feb-18 06:33N 49°14' W 123°54'2020.0
2017-Feb-18 05:34N 49°19' W 123°24'4 3.6
2017-Feb-18 04:34N 49°21' W 123°20'2120.4
2017-Feb-18 03:33N 49°14' W 123°49'2 2.5
2017-Feb-18 02:33N 49°14' W 123°53'2019.7
2017-Feb-18 01:33N 49°19' W 123°24'7 6.5
2017-Feb-18 00:33N 49°23' W 123°17'1919.4
2017-Feb-17 23:33N 49°15' W 123°44'9 7.0
2017-Feb-17 22:14N 49°12' W 123°57'1319.3
2017-Feb-17 21:33N 49°17' W 123°38'1615.6
2017-Feb-17 20:33N 49°23' W 123°16'10 9.7
2017-Feb-17 19:33N 49°18' W 123°29'9 4.6
2017-Feb-17 17:34N 49°16' W 123°43'1917.9
2017-Feb-17 16:31N 49°23' W 123°16'9 9.0
2017-Feb-17 15:33N 49°18' W 123°28'2020.1
2017-Feb-17 14:33N 49°12' W 123°57'1 0.2
2017-Feb-17 12:24N 49°12' W 123°57'1 0.1
2017-Feb-17 02:33N 49°12' W 123°56'2020.1
2017-Feb-17 01:33N 49°19' W 123°27'8 8.3
2017-Feb-17 00:33N 49°23' W 123°17'1919.0
2017-Feb-16 23:33N 49°15' W 123°43'10 7.2
2017-Feb-16 22:10N 49°12' W 123°57'1117.4
2017-Feb-16 21:33N 49°16' W 123°43'1817.7
2017-Feb-16 20:31N 49°23' W 123°16'9 9.0
2017-Feb-16 19:34N 49°18' W 123°27'2020.4
2017-Feb-16 18:33N 49°12' W 123°57'10 9.9
2017-Feb-16 17:33N 49°16' W 123°43'1919.0
2017-Feb-16 16:33N 49°23' W 123°16'9 8.8
2017-Feb-16 15:33N 49°18' W 123°27'2020.2
2017-Feb-16 14:33N 49°12' W 123°57'0 0.1
2017-Feb-16 08:15N 49°12' W 123°57'0 0.0
2017-Feb-16 07:33N 49°12' W 123°57'0 0.0
2017-Feb-16 06:33N 49°12' W 123°57'0 0.0
2017-Feb-16 05:24N 49°12' W 123°57'0 0.0
2017-Feb-16 04:33N 49°12' W 123°57'0 0.0
2017-Feb-16 03:30N 49°12' W 123°57'1 1.2
2017-Feb-16 02:33N 49°12' W 123°56'2020.5
2017-Feb-16 01:34N 49°19' W 123°27'8 7.7
2017-Feb-16 00:33N 49°23' W 123°16'1918.6
2017-Feb-15 23:33N 49°15' W 123°42'1010.3
2017-Feb-15 22:33N 49°12' W 123°57'1313.3
2017-Feb-15 21:33N 49°17' W 123°39'1615.9
2017-Feb-15 20:33N 49°23' W 123°16'1110.9
2017-Feb-15 19:33N 49°17' W 123°31'1818.0
2017-Feb-15 18:33N 49°12' W 123°57'1111.3
2017-Feb-15 17:33N 49°16' W 123°42'1817.7
2017-Feb-15 16:33N 49°23' W 123°16'9 8.9
2017-Feb-15 15:33N 49°18' W 123°28'2020.0
2017-Feb-15 14:33N 49°12' W 123°57'0 0.2
2017-Feb-15 12:31N 49°12' W 123°57'0 0.0
2017-Feb-15 11:31N 49°12' W 123°57'0 0.0
2017-Feb-15 10:31N 49°12' W 123°57'0 0.0
2017-Feb-15 09:10N 49°12' W 123°57'0 0.0
2017-Feb-15 08:31N 49°12' W 123°57'0 0.0
2017-Feb-15 07:31N 49°12' W 123°57'0 0.0
2017-Feb-15 06:28N 49°12' W 123°57'0 0.0
2017-Feb-15 05:22N 49°12' W 123°57'0 0.0
2017-Feb-15 03:25N 49°12' W 123°57'0 0.5
2017-Feb-15 02:33N 49°12' W 123°57'2019.7
2017-Feb-15 01:33N 49°18' W 123°29'9 9.2
2017-Feb-15 00:33N 49°23' W 123°16'1818.3
2017-Feb-14 23:33N 49°16' W 123°42'1110.7
2017-Feb-14 22:33N 49°12' W 123°57'1111.5
2017-Feb-14 21:34N 49°16' W 123°41'  

Dump ship's entire track history